createdAt,value
2022-10-18T08:42:54.648Z,6.20
2022-10-18T08:45:41.022Z,6.40
2022-10-18T08:48:21.775Z,6.60
2022-10-18T08:50:49.882Z,6.80
2022-10-18T08:53:37.765Z,7.10
2022-10-18T08:56:14.622Z,7.30
2022-10-18T08:58:44.311Z,7.50
2022-10-18T09:01:21.130Z,7.80
2022-10-18T09:03:51.676Z,7.90
2022-10-18T09:06:23.508Z,8.10
2022-10-18T09:08:58.243Z,8.30
2022-10-18T09:11:37.984Z,8.50
2022-10-18T09:14:05.409Z,8.70
2022-10-18T09:16:44.566Z,8.90
2022-10-18T09:19:24.703Z,9.10
2022-10-18T09:21:58.327Z,9.30
2022-10-18T09:24:28.165Z,9.40
2022-10-18T09:27:03.998Z,9.60
2022-10-18T09:29:41.107Z,9.80
2022-10-18T09:32:27.382Z,10.00
2022-10-18T09:35:13.623Z,10.20
2022-10-18T09:37:41.463Z,10.30
2022-10-18T09:40:26.222Z,10.50
2022-10-18T09:42:54.099Z,10.70
2022-10-18T09:45:24.592Z,10.90
2022-10-18T09:48:14.156Z,11.00
2022-10-18T09:50:44.696Z,11.10
2022-10-18T09:53:14.998Z,11.30
2022-10-18T09:55:57.460Z,11.40
2022-10-18T09:58:27.574Z,11.50
2022-10-18T10:00:55.582Z,11.70
2022-10-18T10:03:23.160Z,11.80
2022-10-18T10:06:01.816Z,12.00
2022-10-18T10:08:33.748Z,12.20
2022-10-18T10:11:01.462Z,12.30
2022-10-18T10:13:28.928Z,12.50
2022-10-18T10:15:57.645Z,12.70
2022-10-18T10:18:26.250Z,12.80
2022-10-18T10:20:55.453Z,13.00
2022-10-18T10:23:32.198Z,13.10
2022-10-18T10:26:07.508Z,13.30
2022-10-18T10:28:36.654Z,13.40
2022-10-18T10:31:39.639Z,13.60
2022-10-18T10:34:19.766Z,13.70
2022-10-18T10:36:51.346Z,13.80
2022-10-18T10:39:19.689Z,14.00
2022-10-18T10:41:48.271Z,14.20
2022-10-18T10:44:17.470Z,14.30
2022-10-18T10:46:45.110Z,14.40
2022-10-18T10:49:40.666Z,14.60
2022-10-18T10:52:35.240Z,14.60
2022-10-18T10:55:23.555Z,14.80
2022-10-18T10:57:51.836Z,14.90
2022-10-18T11:00:39.777Z,15.00
2022-10-18T11:03:27.890Z,15.10
2022-10-18T11:05:57.956Z,15.20
2022-10-18T11:08:26.839Z,15.30
2022-10-18T11:10:59.415Z,15.30
2022-10-18T11:13:41.815Z,15.40
2022-10-18T11:16:15.089Z,15.50
2022-10-18T11:18:43.952Z,15.50
2022-10-18T11:21:18.992Z,15.60
2022-10-18T11:23:46.476Z,15.70
2022-10-18T11:26:13.795Z,15.70
2022-10-18T11:29:01.727Z,15.80
2022-10-18T11:31:32.523Z,15.80
2022-10-18T11:34:09.164Z,15.90
2022-10-18T11:37:15.942Z,16.00
2022-10-18T11:40:07.581Z,16.10
2022-10-18T11:42:50.514Z,16.20
2022-10-18T11:45:33.420Z,16.30
2022-10-18T11:48:06.830Z,16.40
2022-10-18T11:50:53.028Z,16.50
2022-10-18T11:53:34.473Z,16.60
2022-10-18T11:56:25.165Z,16.80
2022-10-18T11:59:12.791Z,16.80
2022-10-18T12:01:46.435Z,17.00
2022-10-18T12:04:22.125Z,17.10
2022-10-18T12:06:50.874Z,17.10
2022-10-18T12:09:24.320Z,16.90
2022-10-18T12:12:14.543Z,16.60
2022-10-18T12:14:41.875Z,16.30
2022-10-18T12:17:42.800Z,16.30
2022-10-18T12:20:32.629Z,16.10
2022-10-18T12:23:01.915Z,16.10
2022-10-18T12:25:30.572Z,16.20
2022-10-18T12:28:05.876Z,16.30
2022-10-18T12:30:39.687Z,16.30
2022-10-18T12:33:27.777Z,16.40
2022-10-18T12:35:58.935Z,16.50
2022-10-18T12:38:35.497Z,16.50
2022-10-18T12:41:03.415Z,16.50
2022-10-18T12:43:36.459Z,16.50
2022-10-18T12:46:09.381Z,16.40
2022-10-18T12:48:42.679Z,16.50
2022-10-18T12:51:16.350Z,16.40
2022-10-18T12:53:46.128Z,16.40
2022-10-18T12:56:28.812Z,16.40
2022-10-18T12:59:15.054Z,16.40
2022-10-18T13:01:51.578Z,16.50
2022-10-18T13:04:28.206Z,16.50
2022-10-18T13:06:59.349Z,16.50
2022-10-18T13:09:36.779Z,16.50
2022-10-18T13:12:10.285Z,16.50
2022-10-18T13:15:12.588Z,16.40
2022-10-18T13:18:02.739Z,16.40
2022-10-18T13:20:30.084Z,16.50
2022-10-18T13:23:05.218Z,16.40
2022-10-18T13:25:35.490Z,16.40
2022-10-18T13:28:17.864Z,16.40
2022-10-18T13:30:57.595Z,16.40
2022-10-18T13:33:27.189Z,16.50
2022-10-18T13:36:04.029Z,16.60
2022-10-18T13:38:48.589Z,16.60
2022-10-18T13:41:20.169Z,16.60
2022-10-18T13:43:51.526Z,16.60
2022-10-18T13:46:20.329Z,16.60
2022-10-18T13:48:52.630Z,16.60
2022-10-18T13:51:23.130Z,16.60
2022-10-18T13:54:02.846Z,16.70
2022-10-18T13:56:35.280Z,16.60
2022-10-18T13:59:14.126Z,16.50
2022-10-18T14:01:52.958Z,16.50
2022-10-18T14:04:29.668Z,16.50
2022-10-18T14:07:02.227Z,16.50
2022-10-18T14:09:44.387Z,16.50
2022-10-18T14:12:25.276Z,16.60
2022-10-18T14:15:13.970Z,16.50
2022-10-18T14:17:47.009Z,16.50
2022-10-18T14:20:20.669Z,16.50
2022-10-18T14:22:54.806Z,16.40
2022-10-18T14:25:26.136Z,16.40
2022-10-18T14:28:12.648Z,16.40
2022-10-18T14:30:59.021Z,16.40
2022-10-18T14:33:27.985Z,16.30
2022-10-18T14:35:59.471Z,16.30
2022-10-18T14:38:26.912Z,16.20
2022-10-18T14:41:04.452Z,16.10
2022-10-18T14:43:32.021Z,16.00
2022-10-18T14:46:17.759Z,16.00
2022-10-18T14:48:51.916Z,16.00
2022-10-18T14:51:19.884Z,15.90
2022-10-18T14:53:48.073Z,15.80
2022-10-18T14:56:26.758Z,15.70
2022-10-18T14:58:55.376Z,15.50
2022-10-18T15:01:24.444Z,15.40
2022-10-18T15:03:55.878Z,15.30
2022-10-18T15:06:23.268Z,15.20
2022-10-18T15:08:53.329Z,15.10
2022-10-18T15:11:20.998Z,15.10
2022-10-18T15:13:53.446Z,15.10
2022-10-18T15:16:22.519Z,15.10
2022-10-18T15:19:06.822Z,15.00
2022-10-18T15:21:35.275Z,15.00
2022-10-18T15:24:18.815Z,14.90
2022-10-18T15:26:46.686Z,14.80
2022-10-18T15:29:20.913Z,14.80
2022-10-18T15:31:49.613Z,14.80
2022-10-18T15:34:24.490Z,14.80
2022-10-18T15:36:52.741Z,14.80
2022-10-18T15:39:21.757Z,14.80
2022-10-18T15:41:53.870Z,14.80
2022-10-18T15:44:21.348Z,14.80
2022-10-18T15:46:49.611Z,14.80
2022-10-18T15:49:35.953Z,14.80
2022-10-18T15:52:10.754Z,14.70
2022-10-18T15:54:38.836Z,14.60
2022-10-18T15:57:12.411Z,14.50
2022-10-18T15:59:49.520Z,14.50
2022-10-18T16:02:16.950Z,14.40
2022-10-18T16:04:44.425Z,14.30
2022-10-18T16:07:12.019Z,14.30
2022-10-18T16:09:39.509Z,14.30
2022-10-18T16:12:06.893Z,14.30
2022-10-18T16:14:35.109Z,14.20
2022-10-18T16:17:03.780Z,14.10
2022-10-18T16:19:32.062Z,14.00
2022-10-18T16:22:05.137Z,13.90
2022-10-18T16:24:33.900Z,13.90
2022-10-18T16:27:01.249Z,13.80
2022-10-18T16:29:32.114Z,13.70
2022-10-18T16:31:59.991Z,13.60
2022-10-18T16:34:27.622Z,13.50
2022-10-18T16:36:55.341Z,13.40
2022-10-18T16:39:23.083Z,13.40
2022-10-18T16:41:51.329Z,13.40
2022-10-18T16:44:19.282Z,13.30
2022-10-18T16:46:50.979Z,13.20
2022-10-18T16:49:25.166Z,13.20
2022-10-18T16:51:53.397Z,13.10
2022-10-18T16:54:20.871Z,13.00
2022-10-18T16:56:50.084Z,12.90
2022-10-18T16:59:23.053Z,12.80
2022-10-18T17:01:50.576Z,12.80
2022-10-18T17:04:17.983Z,12.80
2022-10-18T17:06:45.720Z,12.70
2022-10-18T17:09:14.460Z,12.60
2022-10-18T17:11:43.067Z,12.60
2022-10-18T17:14:10.550Z,12.50
2022-10-18T17:16:39.228Z,12.40
2022-10-18T17:19:07.780Z,12.30
2022-10-18T17:21:35.440Z,12.20
2022-10-18T17:24:04.380Z,12.10
2022-10-18T17:26:31.904Z,12.00
2022-10-18T17:29:01.290Z,11.90
2022-10-18T17:31:29.965Z,11.90
2022-10-18T17:33:58.841Z,11.80
2022-10-18T17:36:26.398Z,11.80
2022-10-18T17:38:54.395Z,11.70
2022-10-18T17:41:21.948Z,11.70
2022-10-18T17:43:49.434Z,11.60
2022-10-18T17:46:17.899Z,11.60
2022-10-18T17:48:45.653Z,11.50
2022-10-18T17:51:14.321Z,11.40
2022-10-18T17:53:41.895Z,11.30
2022-10-18T17:56:10.278Z,11.30
2022-10-18T17:58:38.085Z,11.30
2022-10-18T18:01:12.831Z,11.20
2022-10-18T18:03:40.904Z,11.20
2022-10-18T18:06:15.643Z,11.10
2022-10-18T18:08:43.488Z,11.10
2022-10-18T18:11:10.999Z,11.10
2022-10-18T18:13:38.403Z,11.10
2022-10-18T18:16:22.192Z,11.10
2022-10-18T18:18:50.583Z,11.10
2022-10-18T18:21:18.204Z,11.00
2022-10-18T18:23:45.743Z,10.90
2022-10-18T18:26:14.554Z,10.90
2022-10-18T18:28:42.266Z,10.90
2022-10-18T18:31:14.312Z,10.90
2022-10-18T18:33:42.133Z,10.90
2022-10-18T18:36:10.111Z,10.90
2022-10-18T18:38:38.426Z,10.80
2022-10-18T18:41:10.471Z,10.80
2022-10-18T18:43:38.883Z,10.80
2022-10-18T18:46:06.323Z,10.80
2022-10-18T18:48:34.134Z,10.80
2022-10-18T18:51:02.423Z,10.80
2022-10-18T18:53:30.151Z,10.80
2022-10-18T18:56:01.721Z,10.80
2022-10-18T18:58:29.301Z,10.70
2022-10-18T19:00:56.671Z,10.70
2022-10-18T19:03:24.186Z,10.70
2022-10-18T19:05:51.535Z,10.60
2022-10-18T19:08:19.091Z,10.60
2022-10-18T19:10:49.047Z,10.60
2022-10-18T19:13:16.453Z,10.60
2022-10-18T19:15:43.981Z,10.60
2022-10-18T19:18:11.347Z,10.60
2022-10-18T19:20:38.809Z,10.50
2022-10-18T19:23:06.171Z,10.60
2022-10-18T19:25:35.545Z,10.50
2022-10-18T19:28:02.860Z,10.60
2022-10-18T19:30:30.230Z,10.60
2022-10-18T19:33:04.083Z,10.50
2022-10-18T19:35:31.509Z,10.60
2022-10-18T19:37:58.961Z,10.50
2022-10-18T19:40:28.129Z,10.50
2022-10-18T19:42:55.553Z,10.40
2022-10-18T19:45:22.958Z,10.40
2022-10-18T19:47:50.271Z,10.40
2022-10-18T19:50:17.751Z,10.40
2022-10-18T19:52:45.167Z,10.30
2022-10-18T19:55:12.573Z,10.30
2022-10-18T19:57:39.997Z,10.30
2022-10-18T20:00:09.941Z,10.30
2022-10-18T20:02:41.241Z,10.30
2022-10-18T20:05:08.827Z,10.30
2022-10-18T20:07:36.651Z,10.20
2022-10-18T20:10:04.367Z,10.20
2022-10-18T20:12:31.984Z,10.20
2022-10-18T20:14:59.759Z,10.20
2022-10-18T20:17:27.130Z,10.10
2022-10-18T20:19:54.478Z,10.10
2022-10-18T20:22:21.969Z,10.00
2022-10-18T20:24:49.419Z,10.10
2022-10-18T20:27:16.871Z,10.10
2022-10-18T20:29:44.220Z,10.00
2022-10-18T20:32:11.750Z,10.00
2022-10-18T20:34:39.192Z,10.00
2022-10-18T20:37:06.641Z,10.00
2022-10-18T20:39:35.169Z,10.00
2022-10-18T20:42:02.809Z,10.00
2022-10-18T20:44:31.974Z,9.90
2022-10-18T20:46:59.421Z,9.90
2022-10-18T20:49:26.980Z,9.90
2022-10-18T20:51:54.388Z,9.90
2022-10-18T20:54:21.876Z,9.90
2022-10-18T20:56:49.230Z,9.80
2022-10-18T20:59:17.125Z,9.90
2022-10-18T21:01:44.646Z,9.80
2022-10-18T21:04:12.304Z,9.80
2022-10-18T21:06:41.350Z,9.80
2022-10-18T21:09:16.331Z,9.80
2022-10-18T21:11:45.224Z,9.80
2022-10-18T21:14:13.777Z,9.80
2022-10-18T21:16:41.264Z,9.80
2022-10-18T21:19:28.985Z,9.80
2022-10-18T21:21:57.098Z,9.70
2022-10-18T21:24:25.193Z,9.70
2022-10-18T21:26:52.735Z,9.60
2022-10-18T21:29:22.474Z,9.60
2022-10-18T21:31:52.865Z,9.60
2022-10-18T21:34:20.559Z,9.60
2022-10-18T21:36:48.134Z,9.50
2022-10-18T21:39:19.948Z,9.50
2022-10-18T21:41:47.728Z,9.40
2022-10-18T21:44:15.819Z,9.40
2022-10-18T21:46:43.316Z,9.40
2022-10-18T21:49:11.000Z,9.40
2022-10-18T21:51:38.451Z,9.40
2022-10-18T21:54:07.283Z,9.50
2022-10-18T21:56:35.338Z,9.40
2022-10-18T21:59:03.270Z,9.50
2022-10-18T22:01:35.302Z,9.50
2022-10-18T22:04:04.222Z,9.50
2022-10-18T22:06:32.835Z,9.60
2022-10-18T22:09:01.547Z,9.60
2022-10-18T22:11:30.687Z,9.60
2022-10-18T22:13:58.409Z,9.60
2022-10-18T22:16:26.302Z,9.60
2022-10-18T22:18:56.594Z,9.60
2022-10-18T22:21:24.279Z,9.50
2022-10-18T22:23:52.807Z,9.50
2022-10-18T22:26:30.652Z,9.50
2022-10-18T22:28:59.710Z,9.50
2022-10-18T22:31:28.848Z,9.40
2022-10-18T22:34:00.608Z,9.40
2022-10-18T22:36:28.101Z,9.40
2022-10-18T22:38:55.916Z,9.30
2022-10-18T22:41:23.616Z,9.30
2022-10-18T22:43:51.376Z,9.30
2022-10-18T22:46:19.412Z,9.30
2022-10-18T22:48:46.808Z,9.30
2022-10-18T22:51:14.162Z,9.30
2022-10-18T22:53:41.824Z,9.30
2022-10-18T22:56:11.297Z,9.30
2022-10-18T22:58:38.696Z,9.40
2022-10-18T23:01:07.266Z,9.40
2022-10-18T23:03:34.775Z,9.40
2022-10-18T23:06:02.451Z,9.40
2022-10-18T23:08:30.269Z,9.40
2022-10-18T23:10:58.975Z,9.50
2022-10-18T23:13:27.117Z,9.40
2022-10-18T23:16:04.257Z,9.40
2022-10-18T23:18:33.189Z,9.50
2022-10-18T23:21:04.777Z,9.40
2022-10-18T23:23:35.702Z,9.50
2022-10-18T23:26:07.468Z,9.50
2022-10-18T23:28:39.250Z,9.60
2022-10-18T23:31:11.424Z,9.70
2022-10-18T23:33:39.256Z,9.70
2022-10-18T23:36:07.203Z,9.70
2022-10-18T23:38:34.951Z,9.80
2022-10-18T23:41:02.348Z,9.80
2022-10-18T23:43:29.842Z,9.80
2022-10-18T23:45:57.328Z,9.80
2022-10-18T23:48:24.717Z,9.80
2022-10-18T23:50:52.461Z,9.90
2022-10-18T23:53:20.549Z,9.90
2022-10-18T23:55:54.187Z,9.90
2022-10-18T23:58:21.708Z,9.90
